TFL39G LTAI-EHAM
Flight info
| Callsign | TFL39G |
|---|---|
| Flight time | N/A |
| Altitude | 36000 |
| Route | EKSEN UT337 EKNUD UQ26 TUDBU DCT NAVOD DCT SODGO DCT GUPRO DCT MOPUG DCT ZOLKU DCT BEGLA DCT FMD DCT STO DCT DITIS DCT VARIK DCT KATCE DCT APEBE DCT NORKU |
| Aircraft | B738/M-SDE2E3FGHIRWXY/LB1 |
Departure
| Time | N/A |
|---|---|
| Airport | Antalya International Airport (LTAI) |
Arrival
| Time | 2026-05-06 22:46 |
|---|---|
| Airport | Amsterdam Airport Schiphol (EHAM) |
| Time | Latitude | Longitude | Altitude | Speed | Heading |
|---|---|---|---|---|---|
| 2026-05-06 22:14 | 52.02303 | 7.72889 | 33567 ft | 448 kts | 291° |
| 2026-05-06 22:14 | 52.03524 | 7.68193 | 32909 ft | 452 kts | 291° |
| 2026-05-06 22:14 | 52.04746 | 7.63485 | 32247 ft | 453 kts | 291° |
| 2026-05-06 22:15 | 52.05968 | 7.58775 | 31618 ft | 452 kts | 291° |
| 2026-05-06 22:15 | 52.07186 | 7.54069 | 31104 ft | 449 kts | 291° |
| 2026-05-06 22:15 | 52.08392 | 7.49402 | 30594 ft | 446 kts | 291° |
| 2026-05-06 22:15 | 52.09575 | 7.44813 | 30100 ft | 444 kts | 291° |
| 2026-05-06 22:16 | 52.10768 | 7.40172 | 29543 ft | 447 kts | 291° |
| 2026-05-06 22:16 | 52.11969 | 7.35489 | 28982 ft | 452 kts | 291° |
| 2026-05-06 22:16 | 52.13186 | 7.30735 | 28432 ft | 457 kts | 291° |
| 2026-05-06 22:16 | 52.14410 | 7.25946 | 27886 ft | 457 kts | 291° |
| 2026-05-06 22:17 | 52.15627 | 7.21171 | 27351 ft | 456 kts | 291° |
| 2026-05-06 22:17 | 52.16846 | 7.16384 | 26830 ft | 456 kts | 291° |
| 2026-05-06 22:17 | 52.18055 | 7.11621 | 26313 ft | 456 kts | 291° |
| 2026-05-06 22:17 | 52.19268 | 7.06840 | 25810 ft | 456 kts | 291° |
| 2026-05-06 22:18 | 52.20469 | 7.02091 | 25320 ft | 456 kts | 291° |
| 2026-05-06 22:18 | 52.21743 | 6.97345 | 24813 ft | 457 kts | 297° |
| 2026-05-06 22:18 | 52.23616 | 6.93190 | 24335 ft | 452 kts | 309° |
| 2026-05-06 22:18 | 52.25649 | 6.89355 | 23856 ft | 442 kts | 308° |
| 2026-05-06 22:19 | 52.27608 | 6.85560 | 23380 ft | 432 kts | 308° |
| 2026-05-06 22:19 | 52.29500 | 6.81805 | 22825 ft | 424 kts | 307° |
| 2026-05-06 22:19 | 52.31318 | 6.78149 | 22282 ft | 416 kts | 307° |
| 2026-05-06 22:19 | 52.33126 | 6.74500 | 21747 ft | 410 kts | 307° |
| 2026-05-06 22:20 | 52.34905 | 6.70909 | 21236 ft | 403 kts | 307° |
| 2026-05-06 22:20 | 52.36656 | 6.67380 | 20721 ft | 397 kts | 308° |
| 2026-05-06 22:20 | 52.38390 | 6.63883 | 20214 ft | 392 kts | 308° |
| 2026-05-06 22:20 | 52.40097 | 6.60436 | 19718 ft | 387 kts | 308° |
| 2026-05-06 22:21 | 52.41783 | 6.57027 | 19233 ft | 383 kts | 308° |
| 2026-05-06 22:21 | 52.43445 | 6.53661 | 18750 ft | 379 kts | 308° |
| 2026-05-06 22:21 | 52.45096 | 6.50315 | 18282 ft | 375 kts | 308° |
| 2026-05-06 22:21 | 52.46505 | 6.46770 | 17694 ft | 370 kts | 292° |
| 2026-05-06 22:22 | 52.47150 | 6.42731 | 17191 ft | 365 kts | 276° |
| 2026-05-06 22:22 | 52.47375 | 6.38648 | 16683 ft | 362 kts | 274° |
| 2026-05-06 22:22 | 52.47549 | 6.34551 | 16166 ft | 359 kts | 274° |
| 2026-05-06 22:22 | 52.47720 | 6.30470 | 15651 ft | 357 kts | 274° |
| 2026-05-06 22:23 | 52.47898 | 6.26426 | 15146 ft | 354 kts | 274° |
| 2026-05-06 22:23 | 52.48084 | 6.22401 | 14660 ft | 352 kts | 275° |
| 2026-05-06 22:23 | 52.48274 | 6.18411 | 14170 ft | 350 kts | 275° |
| 2026-05-06 22:23 | 52.48463 | 6.14500 | 13676 ft | 338 kts | 275° |
| 2026-05-06 22:24 | 52.48648 | 6.10701 | 13135 ft | 329 kts | 275° |
| 2026-05-06 22:24 | 52.48824 | 6.07035 | 12797 ft | 315 kts | 275° |
| 2026-05-06 22:24 | 52.48992 | 6.03518 | 12439 ft | 304 kts | 275° |
| 2026-05-06 22:24 | 52.49153 | 6.00114 | 12090 ft | 295 kts | 275° |
| 2026-05-06 22:25 | 52.49309 | 5.96802 | 11762 ft | 287 kts | 275° |
| 2026-05-06 22:25 | 52.49460 | 5.93567 | 11430 ft | 283 kts | 275° |
| 2026-05-06 22:25 | 52.49610 | 5.90362 | 11103 ft | 281 kts | 275° |
| 2026-05-06 22:25 | 52.49757 | 5.87178 | 10785 ft | 280 kts | 275° |
| 2026-05-06 22:26 | 52.49905 | 5.83990 | 10484 ft | 287 kts | 275° |
| 2026-05-06 22:26 | 52.50057 | 5.80698 | 10172 ft | 291 kts | 275° |
| 2026-05-06 22:26 | 52.50207 | 5.77391 | 10022 ft | 287 kts | 275° |
| 2026-05-06 22:26 | 52.50354 | 5.74145 | 9981 ft | 286 kts | 275° |
| 2026-05-06 22:27 | 52.50501 | 5.70896 | 9985 ft | 285 kts | 275° |
| 2026-05-06 22:27 | 52.50648 | 5.67651 | 9977 ft | 285 kts | 275° |
| 2026-05-06 22:27 | 52.50791 | 5.64409 | 9979 ft | 284 kts | 275° |
| 2026-05-06 22:27 | 52.50934 | 5.61191 | 9987 ft | 282 kts | 275° |
| 2026-05-06 22:28 | 52.51026 | 5.57978 | 9967 ft | 281 kts | 266° |
| 2026-05-06 22:28 | 52.50446 | 5.54927 | 10008 ft | 283 kts | 244° |
| 2026-05-06 22:28 | 52.49466 | 5.52124 | 9999 ft | 284 kts | 239° |
| 2026-05-06 22:28 | 52.48428 | 5.49351 | 9998 ft | 285 kts | 239° |
| 2026-05-06 22:29 | 52.47380 | 5.46578 | 10000 ft | 286 kts | 239° |
| 2026-05-06 22:29 | 52.46333 | 5.43795 | 10000 ft | 287 kts | 240° |
| 2026-05-06 22:29 | 52.45288 | 5.41002 | 9994 ft | 288 kts | 240° |
| 2026-05-06 22:29 | 52.44246 | 5.38203 | 9992 ft | 288 kts | 240° |
| 2026-05-06 22:30 | 52.43219 | 5.35439 | 9994 ft | 288 kts | 240° |
| 2026-05-06 22:30 | 52.42179 | 5.32636 | 9992 ft | 288 kts | 239° |
| 2026-05-06 22:30 | 52.41127 | 5.29798 | 9992 ft | 287 kts | 240° |
| 2026-05-06 22:30 | 52.40103 | 5.27038 | 9982 ft | 287 kts | 240° |
| 2026-05-06 22:31 | 52.39067 | 5.24245 | 9984 ft | 285 kts | 240° |
| 2026-05-06 22:31 | 52.38049 | 5.21505 | 9977 ft | 279 kts | 240° |
| 2026-05-06 22:31 | 52.37053 | 5.18823 | 9974 ft | 273 kts | 240° |
| 2026-05-06 22:31 | 52.36073 | 5.16191 | 9980 ft | 271 kts | 240° |
| 2026-05-06 22:32 | 52.35088 | 5.13549 | 9998 ft | 274 kts | 239° |
| 2026-05-06 22:32 | 52.34090 | 5.10869 | 10001 ft | 277 kts | 241° |
| 2026-05-06 22:32 | 52.33455 | 5.07955 | 9984 ft | 272 kts | 267° |
| 2026-05-06 22:32 | 52.33423 | 5.04882 | 9993 ft | 271 kts | 271° |
| 2026-05-06 22:33 | 52.33415 | 5.01786 | 9919 ft | 274 kts | 271° |
| 2026-05-06 22:33 | 52.33401 | 4.98645 | 9639 ft | 276 kts | 270° |
| 2026-05-06 22:33 | 52.33381 | 4.95518 | 9368 ft | 273 kts | 270° |
| 2026-05-06 22:33 | 52.33360 | 4.92432 | 9087 ft | 270 kts | 270° |
| 2026-05-06 22:34 | 52.33336 | 4.89381 | 8824 ft | 267 kts | 270° |
| 2026-05-06 22:34 | 52.33311 | 4.86359 | 8605 ft | 263 kts | 270° |
| 2026-05-06 22:34 | 52.33287 | 4.83398 | 8388 ft | 259 kts | 270° |
| 2026-05-06 22:34 | 52.33263 | 4.80502 | 8180 ft | 257 kts | 270° |
| 2026-05-06 22:35 | 52.33238 | 4.77577 | 7971 ft | 257 kts | 270° |
| 2026-05-06 22:35 | 52.33212 | 4.74649 | 7765 ft | 257 kts | 271° |
| 2026-05-06 22:35 | 52.33184 | 4.71729 | 7563 ft | 257 kts | 270° |
| 2026-05-06 22:35 | 52.33157 | 4.68826 | 7358 ft | 254 kts | 270° |
| 2026-05-06 22:36 | 52.33129 | 4.65955 | 7139 ft | 251 kts | 270° |
| 2026-05-06 22:36 | 52.33100 | 4.63117 | 6923 ft | 248 kts | 271° |
| 2026-05-06 22:36 | 52.33071 | 4.60317 | 6729 ft | 245 kts | 270° |
| 2026-05-06 22:36 | 52.33041 | 4.57544 | 6516 ft | 243 kts | 272° |
| 2026-05-06 22:37 | 52.33013 | 4.54793 | 6323 ft | 241 kts | 271° |
| 2026-05-06 22:37 | 52.32985 | 4.52071 | 6109 ft | 238 kts | 270° |
| 2026-05-06 22:37 | 52.32955 | 4.49391 | 5881 ft | 235 kts | 271° |
| 2026-05-06 22:37 | 52.32924 | 4.46730 | 5684 ft | 233 kts | 270° |
| 2026-05-06 22:38 | 52.32896 | 4.44077 | 5476 ft | 234 kts | 272° |
| 2026-05-06 22:38 | 52.32852 | 4.41421 | 5267 ft | 235 kts | 266° |
| 2026-05-06 22:38 | 52.32271 | 4.38931 | 4986 ft | 238 kts | 229° |
| 2026-05-06 22:38 | 52.30948 | 4.37470 | 4727 ft | 234 kts | 194° |
| 2026-05-06 22:39 | 52.29339 | 4.37045 | 4482 ft | 230 kts | 182° |
| 2026-05-06 22:39 | 52.27761 | 4.36861 | 4223 ft | 231 kts | 181° |
| 2026-05-06 22:39 | 52.26158 | 4.36684 | 4042 ft | 231 kts | 181° |
| 2026-05-06 22:39 | 52.24562 | 4.36841 | 3975 ft | 229 kts | 156° |
| 2026-05-06 22:40 | 52.23307 | 4.38288 | 3912 ft | 222 kts | 124° |
| 2026-05-06 22:40 | 52.22537 | 4.40467 | 3659 ft | 222 kts | 112° |
| 2026-05-06 22:40 | 52.21886 | 4.42751 | 3391 ft | 223 kts | 112° |
| 2026-05-06 22:40 | 52.21236 | 4.45035 | 3104 ft | 222 kts | 112° |
| 2026-05-06 22:41 | 52.20818 | 4.49754 | 2513 ft | 207 kts | 88° |
| 2026-05-06 22:41 | 52.20813 | 4.52037 | 2196 ft | 195 kts | 79° |
| 2026-05-06 22:41 | 52.21325 | 4.53957 | 2041 ft | 178 kts | 52° |
| 2026-05-06 22:42 | 52.22004 | 4.55576 | 2015 ft | 170 kts | 57° |
| 2026-05-06 22:42 | 52.22596 | 4.57180 | 1995 ft | 158 kts | 57° |
| 2026-05-06 22:42 | 52.23143 | 4.58635 | 1977 ft | 146 kts | 57° |
| 2026-05-06 22:42 | 52.23672 | 4.60025 | 1940 ft | 145 kts | 57° |
| 2026-05-06 22:43 | 52.24198 | 4.61403 | 1796 ft | 142 kts | 56° |
| 2026-05-06 22:43 | 52.24715 | 4.62755 | 1594 ft | 139 kts | 56° |
| 2026-05-06 22:43 | 52.25216 | 4.64069 | 1402 ft | 135 kts | 56° |
| 2026-05-06 22:43 | 52.25714 | 4.65370 | 1220 ft | 135 kts | 55° |
| 2026-05-06 22:44 | 52.26214 | 4.66673 | 1037 ft | 137 kts | 57° |
| 2026-05-06 22:44 | 52.26721 | 4.68011 | 839 ft | 141 kts | 57° |
| 2026-05-06 22:44 | 52.27236 | 4.69360 | 671 ft | 142 kts | 55° |
| 2026-05-06 22:44 | 52.27750 | 4.70736 | 482 ft | 142 kts | 54° |
| 2026-05-06 22:45 | 52.28287 | 4.72092 | 282 ft | 142 kts | 55° |
| 2026-05-06 22:45 | 52.28812 | 4.73472 | 68 ft | 142 kts | 56° |
| 2026-05-06 22:45 | 52.29322 | 4.74802 | 0 ft | 130 kts | 56° |
| 2026-05-06 22:45 | 52.29691 | 4.75764 | -3 ft | 85 kts | 57° |
| 2026-05-06 22:46 | 52.29942 | 4.76405 | -4 ft | 60 kts | 57° |
| 2026-05-06 22:46 | 52.30145 | 4.76937 | -4 ft | 44 kts | 58° |
| 2026-05-06 22:46 | 52.30252 | 4.77211 | -5 ft | 26 kts | 54° |
| 2026-05-06 22:46 | 52.30383 | 4.77374 | -4 ft | 19 kts | 26° |
| 2026-05-06 22:47 | 52.30486 | 4.77395 | -2 ft | 14 kts | 322° |
| 2026-05-06 22:47 | 52.30477 | 4.77255 | -2 ft | 14 kts | 240° |
| 2026-05-06 22:47 | 52.30498 | 4.77118 | -2 ft | 13 kts | 289° |
| 2026-05-06 22:47 | 52.30472 | 4.76983 | -2 ft | 13 kts | 239° |
| 2026-05-06 22:48 | 52.30427 | 4.76863 | -2 ft | 12 kts | 238° |
| 2026-05-06 22:48 | 52.30367 | 4.76711 | -2 ft | 19 kts | 237° |
| 2026-05-06 22:48 | 52.30328 | 4.76564 | -2 ft | 11 kts | 296° |
| 2026-05-06 22:48 | 52.30364 | 4.76509 | -2 ft | 11 kts | 327° |
| 2026-05-06 22:49 | 52.30423 | 4.76450 | -2 ft | 10 kts | 329° |
| 2026-05-06 22:49 | 52.30479 | 4.76393 | -2 ft | 9 kts | 328° |
| 2026-05-06 22:49 | 52.30530 | 4.76377 | -2 ft | 1 kts | 43° |
| 2026-05-06 22:49 | 52.30530 | 4.76378 | -2 ft | 0 kts | 43° |
| 2026-05-06 22:50 | 52.30544 | 4.76412 | -2 ft | 8 kts | 61° |
| 2026-05-06 22:50 | 52.30567 | 4.76476 | -2 ft | 5 kts | 58° |
| 2026-05-06 22:50 | 52.30571 | 4.76486 | -2 ft | 0 kts | 58° |